sensor_id;sensor_type;location;lat;lon;timestamp;P1;durP1;ratioP1;P2;durP2;ratioP2
37067;SDS011;22982;42.848;25.468;2023-06-05T00:03:17;11.88;;;8.15;;
37067;SDS011;22982;42.848;25.468;2023-06-05T00:08:20;11.48;;;8.50;;
37067;SDS011;22982;42.848;25.468;2023-06-05T00:13:22;13.23;;;8.35;;
37067;SDS011;22982;42.848;25.468;2023-06-05T00:18:24;12.73;;;8.25;;
37067;SDS011;22982;42.848;25.468;2023-06-05T00:23:26;10.85;;;8.05;;
37067;SDS011;22982;42.848;25.468;2023-06-05T00:28:29;8.43;;;7.20;;
37067;SDS011;22982;42.848;25.468;2023-06-05T00:33:32;10.20;;;6.78;;
37067;SDS011;22982;42.848;25.468;2023-06-05T00:38:34;9.63;;;7.65;;
37067;SDS011;22982;42.848;25.468;2023-06-05T00:43:37;8.07;;;7.28;;
37067;SDS011;22982;42.848;25.468;2023-06-05T00:48:40;9.38;;;6.88;;
37067;SDS011;22982;42.848;25.468;2023-06-05T00:53:44;11.05;;;6.88;;
37067;SDS011;22982;42.848;25.468;2023-06-05T00:58:48;12.05;;;6.70;;
37067;SDS011;22982;42.848;25.468;2023-06-05T01:03:51;6.30;;;5.65;;
37067;SDS011;22982;42.848;25.468;2023-06-05T01:08:55;7.05;;;6.32;;
37067;SDS011;22982;42.848;25.468;2023-06-05T01:14:10;9.60;;;7.22;;
37067;SDS011;22982;42.848;25.468;2023-06-05T01:19:22;13.88;;;7.45;;
37067;SDS011;22982;42.848;25.468;2023-06-05T01:24:33;12.38;;;8.02;;
37067;SDS011;22982;42.848;25.468;2023-06-05T01:29:57;7.75;;;6.68;;
37067;SDS011;22982;42.848;25.468;2023-06-05T01:35:11;9.88;;;7.18;;
37067;SDS011;22982;42.848;25.468;2023-06-05T01:40:20;18.33;;;6.90;;
37067;SDS011;22982;42.848;25.468;2023-06-05T01:45:24;8.65;;;7.38;;
37067;SDS011;22982;42.848;25.468;2023-06-05T01:50:26;8.70;;;7.10;;
37067;SDS011;22982;42.848;25.468;2023-06-05T01:55:29;14.10;;;7.28;;
37067;SDS011;22982;42.848;25.468;2023-06-05T02:00:32;14.85;;;7.32;;
37067;SDS011;22982;42.848;25.468;2023-06-05T02:05:38;16.20;;;7.57;;
37067;SDS011;22982;42.848;25.468;2023-06-05T02:10:40;12.30;;;7.97;;
37067;SDS011;22982;42.848;25.468;2023-06-05T02:15:46;14.23;;;8.95;;
37067;SDS011;22982;42.848;25.468;2023-06-05T02:20:53;15.88;;;8.27;;
37067;SDS011;22982;42.848;25.468;2023-06-05T02:25:58;12.07;;;7.65;;
37067;SDS011;22982;42.848;25.468;2023-06-05T02:31:00;11.25;;;7.38;;
37067;SDS011;22982;42.848;25.468;2023-06-05T02:36:03;17.92;;;7.03;;
37067;SDS011;22982;42.848;25.468;2023-06-05T02:41:06;10.75;;;7.78;;
37067;SDS011;22982;42.848;25.468;2023-06-05T02:46:11;13.98;;;8.77;;
37067;SDS011;22982;42.848;25.468;2023-06-05T02:51:14;14.32;;;8.90;;
37067;SDS011;22982;42.848;25.468;2023-06-05T02:56:18;13.02;;;7.70;;
37067;SDS011;22982;42.848;25.468;2023-06-05T03:01:20;10.40;;;7.53;;
37067;SDS011;22982;42.848;25.468;2023-06-05T03:06:23;9.68;;;6.93;;
37067;SDS011;22982;42.848;25.468;2023-06-05T03:11:31;10.68;;;7.47;;
37067;SDS011;22982;42.848;25.468;2023-06-05T03:16:33;14.15;;;7.75;;
37067;SDS011;22982;42.848;25.468;2023-06-05T03:21:44;9.60;;;7.38;;
37067;SDS011;22982;42.848;25.468;2023-06-05T03:26:47;10.68;;;8.25;;
37067;SDS011;22982;42.848;25.468;2023-06-05T03:31:50;12.45;;;8.23;;
37067;SDS011;22982;42.848;25.468;2023-06-05T03:36:53;11.27;;;7.55;;
37067;SDS011;22982;42.848;25.468;2023-06-05T03:41:56;14.15;;;8.40;;
37067;SDS011;22982;42.848;25.468;2023-06-05T03:47:02;11.85;;;7.70;;
37067;SDS011;22982;42.848;25.468;2023-06-05T03:52:05;10.75;;;7.22;;
37067;SDS011;22982;42.848;25.468;2023-06-05T03:57:12;13.05;;;7.50;;
37067;SDS011;22982;42.848;25.468;2023-06-05T04:02:18;6.72;;;6.03;;
37067;SDS011;22982;42.848;25.468;2023-06-05T04:07:20;8.93;;;6.20;;
37067;SDS011;22982;42.848;25.468;2023-06-05T04:12:23;7.18;;;6.32;;
37067;SDS011;22982;42.848;25.468;2023-06-05T04:17:26;10.02;;;7.45;;
37067;SDS011;22982;42.848;25.468;2023-06-05T04:22:28;9.27;;;6.65;;
37067;SDS011;22982;42.848;25.468;2023-06-05T04:27:31;7.70;;;6.22;;
37067;SDS011;22982;42.848;25.468;2023-06-05T04:32:34;10.48;;;6.88;;
37067;SDS011;22982;42.848;25.468;2023-06-05T04:37:39;10.23;;;6.90;;
37067;SDS011;22982;42.848;25.468;2023-06-05T04:42:43;9.18;;;7.25;;
37067;SDS011;22982;42.848;25.468;2023-06-05T04:47:45;8.30;;;7.45;;
37067;SDS011;22982;42.848;25.468;2023-06-05T04:52:47;7.15;;;5.95;;
37067;SDS011;22982;42.848;25.468;2023-06-05T04:57:50;7.43;;;6.00;;
37067;SDS011;22982;42.848;25.468;2023-06-05T05:02:53;7.15;;;6.25;;
37067;SDS011;22982;42.848;25.468;2023-06-05T05:07:57;11.30;;;6.18;;
37067;SDS011;22982;42.848;25.468;2023-06-05T05:13:01;5.72;;;5.13;;
37067;SDS011;22982;42.848;25.468;2023-06-05T05:18:05;6.22;;;5.18;;
37067;SDS011;22982;42.848;25.468;2023-06-05T05:23:08;7.18;;;5.35;;
37067;SDS011;22982;42.848;25.468;2023-06-05T05:28:11;7.60;;;5.32;;
37067;SDS011;22982;42.848;25.468;2023-06-05T05:33:14;5.80;;;5.20;;
37067;SDS011;22982;42.848;25.468;2023-06-05T05:38:17;5.30;;;4.80;;
37067;SDS011;22982;42.848;25.468;2023-06-05T05:43:20;9.32;;;7.22;;
37067;SDS011;22982;42.848;25.468;2023-06-05T05:48:22;6.93;;;5.53;;
37067;SDS011;22982;42.848;25.468;2023-06-05T05:53:24;6.25;;;5.35;;
37067;SDS011;22982;42.848;25.468;2023-06-05T05:58:27;6.97;;;4.68;;
37067;SDS011;22982;42.848;25.468;2023-06-05T06:03:29;10.43;;;5.88;;
37067;SDS011;22982;42.848;25.468;2023-06-05T06:08:33;8.10;;;4.90;;
37067;SDS011;22982;42.848;25.468;2023-06-05T06:13:36;9.00;;;4.40;;
37067;SDS011;22982;42.848;25.468;2023-06-05T06:18:38;7.40;;;4.82;;
37067;SDS011;22982;42.848;25.468;2023-06-05T06:23:41;7.90;;;5.10;;
37067;SDS011;22982;42.848;25.468;2023-06-05T06:28:44;6.05;;;4.20;;
37067;SDS011;22982;42.848;25.468;2023-06-05T06:33:46;5.43;;;4.45;;
37067;SDS011;22982;42.848;25.468;2023-06-05T06:38:48;4.82;;;3.67;;
37067;SDS011;22982;42.848;25.468;2023-06-05T06:43:51;4.35;;;3.60;;
37067;SDS011;22982;42.848;25.468;2023-06-05T06:48:54;4.57;;;3.97;;
37067;SDS011;22982;42.848;25.468;2023-06-05T06:53:56;5.70;;;3.40;;
37067;SDS011;22982;42.848;25.468;2023-06-05T06:58:59;8.95;;;3.50;;
37067;SDS011;22982;42.848;25.468;2023-06-05T07:04:02;3.88;;;3.10;;
37067;SDS011;22982;42.848;25.468;2023-06-05T07:09:04;6.50;;;3.20;;
37067;SDS011;22982;42.848;25.468;2023-06-05T07:14:07;4.10;;;2.80;;
37067;SDS011;22982;42.848;25.468;2023-06-05T07:19:09;4.13;;;3.03;;
37067;SDS011;22982;42.848;25.468;2023-06-05T07:24:11;6.55;;;3.53;;
37067;SDS011;22982;42.848;25.468;2023-06-05T07:29:13;3.60;;;3.03;;
37067;SDS011;22982;42.848;25.468;2023-06-05T07:34:17;4.95;;;3.00;;
37067;SDS011;22982;42.848;25.468;2023-06-05T07:39:20;3.85;;;3.10;;
37067;SDS011;22982;42.848;25.468;2023-06-05T07:44:23;3.80;;;3.10;;
37067;SDS011;22982;42.848;25.468;2023-06-05T07:49:29;5.75;;;3.22;;
37067;SDS011;22982;42.848;25.468;2023-06-05T07:54:32;5.03;;;3.40;;
37067;SDS011;22982;42.848;25.468;2023-06-05T07:59:36;6.20;;;3.35;;
37067;SDS011;22982;42.848;25.468;2023-06-05T08:04:39;6.43;;;3.28;;
37067;SDS011;22982;42.848;25.468;2023-06-05T08:09:42;3.70;;;3.40;;
37067;SDS011;22982;42.848;25.468;2023-06-05T08:14:45;6.18;;;3.38;;
37067;SDS011;22982;42.848;25.468;2023-06-05T08:19:47;8.40;;;3.78;;
37067;SDS011;22982;42.848;25.468;2023-06-05T08:24:49;5.20;;;3.25;;
37067;SDS011;22982;42.848;25.468;2023-06-05T08:29:55;4.80;;;2.92;;
37067;SDS011;22982;42.848;25.468;2023-06-05T08:34:58;8.60;;;4.38;;
37067;SDS011;22982;42.848;25.468;2023-06-05T08:40:01;8.50;;;4.03;;
37067;SDS011;22982;42.848;25.468;2023-06-05T08:45:13;5.57;;;3.38;;
37067;SDS011;22982;42.848;25.468;2023-06-05T08:50:16;5.30;;;3.25;;
37067;SDS011;22982;42.848;25.468;2023-06-05T08:55:19;6.50;;;3.60;;
37067;SDS011;22982;42.848;25.468;2023-06-05T09:00:23;3.65;;;3.08;;
37067;SDS011;22982;42.848;25.468;2023-06-05T09:05:25;3.60;;;3.10;;
37067;SDS011;22982;42.848;25.468;2023-06-05T09:10:28;4.47;;;2.75;;
37067;SDS011;22982;42.848;25.468;2023-06-05T09:15:32;5.15;;;3.05;;
37067;SDS011;22982;42.848;25.468;2023-06-05T09:20:36;3.60;;;3.13;;
37067;SDS011;22982;42.848;25.468;2023-06-05T09:25:44;3.33;;;3.00;;
37067;SDS011;22982;42.848;25.468;2023-06-05T09:36:03;4.85;;;3.63;;
37067;SDS011;22982;42.848;25.468;2023-06-05T09:41:15;5.60;;;3.45;;
37067;SDS011;22982;42.848;25.468;2023-06-05T09:46:20;7.63;;;3.85;;
37067;SDS011;22982;42.848;25.468;2023-06-05T09:51:22;3.97;;;2.92;;
37067;SDS011;22982;42.848;25.468;2023-06-05T09:56:25;9.25;;;3.55;;
37067;SDS011;22982;42.848;25.468;2023-06-05T10:01:28;4.65;;;3.60;;
37067;SDS011;22982;42.848;25.468;2023-06-05T10:06:32;5.50;;;3.40;;
37067;SDS011;22982;42.848;25.468;2023-06-05T10:11:35;5.75;;;3.33;;
37067;SDS011;22982;42.848;25.468;2023-06-05T10:16:37;3.90;;;2.95;;
37067;SDS011;22982;42.848;25.468;2023-06-05T10:21:41;3.75;;;3.03;;
37067;SDS011;22982;42.848;25.468;2023-06-05T10:26:52;5.40;;;3.20;;
37067;SDS011;22982;42.848;25.468;2023-06-05T10:31:59;4.45;;;3.60;;
37067;SDS011;22982;42.848;25.468;2023-06-05T10:42:31;4.30;;;3.53;;
37067;SDS011;22982;42.848;25.468;2023-06-05T10:52:35;4.65;;;3.28;;
37067;SDS011;22982;42.848;25.468;2023-06-05T11:03:04;4.10;;;3.63;;
37067;SDS011;22982;42.848;25.468;2023-06-05T11:08:16;3.92;;;3.22;;
37067;SDS011;22982;42.848;25.468;2023-06-05T11:13:21;4.80;;;3.78;;
37067;SDS011;22982;42.848;25.468;2023-06-05T11:18:30;7.15;;;3.67;;
37067;SDS011;22982;42.848;25.468;2023-06-05T11:23:34;4.22;;;3.58;;
37067;SDS011;22982;42.848;25.468;2023-06-05T11:28:37;5.22;;;3.75;;
37067;SDS011;22982;42.848;25.468;2023-06-05T11:33:41;4.63;;;3.38;;
37067;SDS011;22982;42.848;25.468;2023-06-05T11:38:52;4.72;;;3.35;;
37067;SDS011;22982;42.848;25.468;2023-06-05T11:43:56;3.30;;;3.00;;
37067;SDS011;22982;42.848;25.468;2023-06-05T11:48:59;4.28;;;3.60;;
37067;SDS011;22982;42.848;25.468;2023-06-05T11:54:01;5.68;;;3.65;;
37067;SDS011;22982;42.848;25.468;2023-06-05T11:59:04;3.40;;;3.05;;
37067;SDS011;22982;42.848;25.468;2023-06-05T12:04:10;4.20;;;3.50;;
37067;SDS011;22982;42.848;25.468;2023-06-05T12:09:13;4.10;;;3.60;;
37067;SDS011;22982;42.848;25.468;2023-06-05T12:14:32;4.10;;;3.40;;
37067;SDS011;22982;42.848;25.468;2023-06-05T12:19:35;6.45;;;3.78;;
37067;SDS011;22982;42.848;25.468;2023-06-05T12:24:38;7.82;;;3.60;;
37067;SDS011;22982;42.848;25.468;2023-06-05T12:29:52;6.43;;;4.10;;
37067;SDS011;22982;42.848;25.468;2023-06-05T12:34:58;8.13;;;3.65;;
37067;SDS011;22982;42.848;25.468;2023-06-05T12:40:07;6.05;;;3.85;;
37067;SDS011;22982;42.848;25.468;2023-06-05T12:45:13;7.88;;;3.85;;
37067;SDS011;22982;42.848;25.468;2023-06-05T12:50:16;4.68;;;3.58;;
37067;SDS011;22982;42.848;25.468;2023-06-05T12:55:22;4.93;;;4.00;;
37067;SDS011;22982;42.848;25.468;2023-06-05T13:00:25;4.38;;;3.72;;
37067;SDS011;22982;42.848;25.468;2023-06-05T13:05:27;9.55;;;4.22;;
37067;SDS011;22982;42.848;25.468;2023-06-05T13:10:30;8.00;;;4.18;;
37067;SDS011;22982;42.848;25.468;2023-06-05T13:15:32;11.93;;;4.05;;
37067;SDS011;22982;42.848;25.468;2023-06-05T13:20:34;5.38;;;4.00;;
37067;SDS011;22982;42.848;25.468;2023-06-05T13:25:37;6.15;;;3.80;;
37067;SDS011;22982;42.848;25.468;2023-06-05T13:30:41;5.07;;;3.75;;
37067;SDS011;22982;42.848;25.468;2023-06-05T13:35:44;6.32;;;3.47;;
37067;SDS011;22982;42.848;25.468;2023-06-05T13:40:48;4.15;;;3.60;;
37067;SDS011;22982;42.848;25.468;2023-06-05T13:45:53;6.00;;;3.35;;
37067;SDS011;22982;42.848;25.468;2023-06-05T13:50:56;8.80;;;3.58;;
37067;SDS011;22982;42.848;25.468;2023-06-05T13:56:02;5.00;;;3.70;;
37067;SDS011;22982;42.848;25.468;2023-06-05T14:01:07;4.18;;;3.70;;
37067;SDS011;22982;42.848;25.468;2023-06-05T14:06:09;5.28;;;3.22;;
37067;SDS011;22982;42.848;25.468;2023-06-05T14:11:12;6.47;;;3.70;;
37067;SDS011;22982;42.848;25.468;2023-06-05T14:16:15;7.10;;;3.70;;
37067;SDS011;22982;42.848;25.468;2023-06-05T14:21:17;5.70;;;4.20;;
37067;SDS011;22982;42.848;25.468;2023-06-05T14:26:20;7.32;;;3.67;;
37067;SDS011;22982;42.848;25.468;2023-06-05T14:31:23;7.07;;;3.70;;
37067;SDS011;22982;42.848;25.468;2023-06-05T14:36:27;9.02;;;3.92;;
37067;SDS011;22982;42.848;25.468;2023-06-05T14:41:30;6.40;;;3.45;;
37067;SDS011;22982;42.848;25.468;2023-06-05T14:46:33;5.65;;;3.58;;
37067;SDS011;22982;42.848;25.468;2023-06-05T14:51:35;6.35;;;3.55;;
37067;SDS011;22982;42.848;25.468;2023-06-05T14:56:38;3.92;;;3.42;;
37067;SDS011;22982;42.848;25.468;2023-06-05T15:01:40;13.70;;;4.70;;
37067;SDS011;22982;42.848;25.468;2023-06-05T15:06:44;6.55;;;3.25;;
37067;SDS011;22982;42.848;25.468;2023-06-05T15:11:46;6.38;;;3.47;;
37067;SDS011;22982;42.848;25.468;2023-06-05T15:16:50;7.55;;;3.47;;
37067;SDS011;22982;42.848;25.468;2023-06-05T15:21:52;6.70;;;3.38;;
37067;SDS011;22982;42.848;25.468;2023-06-05T15:26:55;7.55;;;3.20;;
37067;SDS011;22982;42.848;25.468;2023-06-05T15:31:57;7.90;;;3.33;;
37067;SDS011;22982;42.848;25.468;2023-06-05T15:37:20;5.30;;;3.83;;
37067;SDS011;22982;42.848;25.468;2023-06-05T15:42:27;5.93;;;3.10;;
37067;SDS011;22982;42.848;25.468;2023-06-05T15:47:34;3.78;;;2.80;;
37067;SDS011;22982;42.848;25.468;2023-06-05T15:52:38;3.47;;;2.53;;
37067;SDS011;22982;42.848;25.468;2023-06-05T15:57:41;3.85;;;3.00;;
37067;SDS011;22982;42.848;25.468;2023-06-05T16:02:45;3.88;;;2.60;;
37067;SDS011;22982;42.848;25.468;2023-06-05T16:07:48;6.60;;;3.15;;
37067;SDS011;22982;42.848;25.468;2023-06-05T16:12:52;10.32;;;3.45;;
37067;SDS011;22982;42.848;25.468;2023-06-05T16:17:54;9.73;;;3.50;;
37067;SDS011;22982;42.848;25.468;2023-06-05T16:22:57;8.30;;;4.00;;
37067;SDS011;22982;42.848;25.468;2023-06-05T16:27:59;7.97;;;4.55;;
37067;SDS011;22982;42.848;25.468;2023-06-05T16:33:02;10.05;;;4.07;;
37067;SDS011;22982;42.848;25.468;2023-06-05T16:38:05;5.97;;;4.75;;
37067;SDS011;22982;42.848;25.468;2023-06-05T16:43:07;10.25;;;4.00;;
37067;SDS011;22982;42.848;25.468;2023-06-05T16:48:10;10.60;;;4.47;;
37067;SDS011;22982;42.848;25.468;2023-06-05T16:53:13;8.30;;;3.78;;
37067;SDS011;22982;42.848;25.468;2023-06-05T16:58:15;12.10;;;4.68;;
37067;SDS011;22982;42.848;25.468;2023-06-05T17:03:19;7.00;;;4.60;;
37067;SDS011;22982;42.848;25.468;2023-06-05T17:08:23;10.65;;;4.80;;
37067;SDS011;22982;42.848;25.468;2023-06-05T17:13:25;5.70;;;5.00;;
37067;SDS011;22982;42.848;25.468;2023-06-05T17:18:28;6.05;;;4.68;;
37067;SDS011;22982;42.848;25.468;2023-06-05T17:23:31;9.95;;;5.20;;
37067;SDS011;22982;42.848;25.468;2023-06-05T17:28:34;11.95;;;4.53;;
37067;SDS011;22982;42.848;25.468;2023-06-05T17:33:36;8.38;;;3.83;;
37067;SDS011;22982;42.848;25.468;2023-06-05T17:38:40;6.95;;;4.03;;
37067;SDS011;22982;42.848;25.468;2023-06-05T17:43:43;7.30;;;4.03;;
37067;SDS011;22982;42.848;25.468;2023-06-05T17:48:45;6.20;;;3.53;;
37067;SDS011;22982;42.848;25.468;2023-06-05T17:53:48;5.50;;;2.90;;
37067;SDS011;22982;42.848;25.468;2023-06-05T17:58:51;6.43;;;4.22;;
37067;SDS011;22982;42.848;25.468;2023-06-05T18:03:53;8.23;;;3.63;;
37067;SDS011;22982;42.848;25.468;2023-06-05T18:08:56;8.60;;;2.83;;
37067;SDS011;22982;42.848;25.468;2023-06-05T18:14:01;4.13;;;2.60;;
37067;SDS011;22982;42.848;25.468;2023-06-05T18:19:06;4.82;;;2.60;;
37067;SDS011;22982;42.848;25.468;2023-06-05T18:24:09;9.98;;;3.30;;
37067;SDS011;22982;42.848;25.468;2023-06-05T18:29:12;5.45;;;2.60;;
37067;SDS011;22982;42.848;25.468;2023-06-05T18:34:14;7.28;;;2.88;;
37067;SDS011;22982;42.848;25.468;2023-06-05T18:39:18;6.10;;;2.50;;
37067;SDS011;22982;42.848;25.468;2023-06-05T18:44:21;6.07;;;2.92;;
37067;SDS011;22982;42.848;25.468;2023-06-05T18:49:24;7.93;;;2.53;;
37067;SDS011;22982;42.848;25.468;2023-06-05T18:54:27;5.25;;;3.42;;
37067;SDS011;22982;42.848;25.468;2023-06-05T18:59:29;4.05;;;2.40;;
37067;SDS011;22982;42.848;25.468;2023-06-05T19:04:33;11.48;;;3.00;;
37067;SDS011;22982;42.848;25.468;2023-06-05T19:09:35;7.38;;;2.63;;
37067;SDS011;22982;42.848;25.468;2023-06-05T19:14:38;8.88;;;3.55;;
37067;SDS011;22982;42.848;25.468;2023-06-05T19:19:41;4.97;;;2.70;;
37067;SDS011;22982;42.848;25.468;2023-06-05T19:24:43;6.63;;;2.65;;
37067;SDS011;22982;42.848;25.468;2023-06-05T19:29:46;8.18;;;3.00;;
37067;SDS011;22982;42.848;25.468;2023-06-05T19:34:48;5.10;;;2.90;;
37067;SDS011;22982;42.848;25.468;2023-06-05T19:39:52;4.90;;;2.65;;
37067;SDS011;22982;42.848;25.468;2023-06-05T19:44:54;7.53;;;2.72;;
37067;SDS011;22982;42.848;25.468;2023-06-05T19:50:00;9.45;;;3.20;;
37067;SDS011;22982;42.848;25.468;2023-06-05T19:55:03;7.80;;;3.00;;
37067;SDS011;22982;42.848;25.468;2023-06-05T20:00:06;11.95;;;2.83;;
37067;SDS011;22982;42.848;25.468;2023-06-05T20:05:16;14.82;;;2.88;;
37067;SDS011;22982;42.848;25.468;2023-06-05T20:10:22;8.75;;;3.03;;
37067;SDS011;22982;42.848;25.468;2023-06-05T20:15:24;8.15;;;2.70;;
37067;SDS011;22982;42.848;25.468;2023-06-05T20:20:27;12.80;;;3.15;;
37067;SDS011;22982;42.848;25.468;2023-06-05T20:25:29;8.80;;;2.78;;
37067;SDS011;22982;42.848;25.468;2023-06-05T20:30:35;5.80;;;3.05;;
37067;SDS011;22982;42.848;25.468;2023-06-05T20:35:37;6.43;;;3.15;;
37067;SDS011;22982;42.848;25.468;2023-06-05T20:40:43;7.30;;;2.80;;
37067;SDS011;22982;42.848;25.468;2023-06-05T20:45:46;7.55;;;3.40;;
37067;SDS011;22982;42.848;25.468;2023-06-05T20:50:49;9.55;;;3.10;;
37067;SDS011;22982;42.848;25.468;2023-06-05T20:55:53;7.78;;;3.05;;
37067;SDS011;22982;42.848;25.468;2023-06-05T21:00:56;4.70;;;2.90;;
37067;SDS011;22982;42.848;25.468;2023-06-05T21:05:59;5.28;;;2.55;;
37067;SDS011;22982;42.848;25.468;2023-06-05T21:11:04;9.77;;;3.50;;
37067;SDS011;22982;42.848;25.468;2023-06-05T21:16:13;6.65;;;3.47;;
37067;SDS011;22982;42.848;25.468;2023-06-05T21:21:16;8.98;;;3.83;;
37067;SDS011;22982;42.848;25.468;2023-06-05T21:26:19;8.00;;;3.70;;
37067;SDS011;22982;42.848;25.468;2023-06-05T21:31:22;16.15;;;4.40;;
37067;SDS011;22982;42.848;25.468;2023-06-05T21:36:25;6.63;;;3.60;;
37067;SDS011;22982;42.848;25.468;2023-06-05T21:41:28;13.93;;;3.50;;
37067;SDS011;22982;42.848;25.468;2023-06-05T21:46:30;5.78;;;3.15;;
37067;SDS011;22982;42.848;25.468;2023-06-05T21:51:33;7.60;;;2.95;;
37067;SDS011;22982;42.848;25.468;2023-06-05T21:56:35;4.80;;;2.67;;
37067;SDS011;22982;42.848;25.468;2023-06-05T22:01:38;4.97;;;2.63;;
37067;SDS011;22982;42.848;25.468;2023-06-05T22:06:41;8.07;;;3.00;;
37067;SDS011;22982;42.848;25.468;2023-06-05T22:11:43;6.93;;;3.47;;
37067;SDS011;22982;42.848;25.468;2023-06-05T22:16:47;10.18;;;3.47;;
37067;SDS011;22982;42.848;25.468;2023-06-05T22:21:52;7.95;;;3.85;;
37067;SDS011;22982;42.848;25.468;2023-06-05T22:26:54;10.32;;;3.35;;
37067;SDS011;22982;42.848;25.468;2023-06-05T22:31:59;11.88;;;3.25;;
37067;SDS011;22982;42.848;25.468;2023-06-05T22:37:01;7.30;;;2.85;;
37067;SDS011;22982;42.848;25.468;2023-06-05T22:42:06;8.23;;;2.78;;
37067;SDS011;22982;42.848;25.468;2023-06-05T22:47:08;8.55;;;2.88;;
37067;SDS011;22982;42.848;25.468;2023-06-05T22:52:12;8.07;;;3.08;;
37067;SDS011;22982;42.848;25.468;2023-06-05T22:57:17;11.02;;;3.85;;
37067;SDS011;22982;42.848;25.468;2023-06-05T23:02:19;4.57;;;2.85;;
37067;SDS011;22982;42.848;25.468;2023-06-05T23:07:23;6.28;;;3.42;;
37067;SDS011;22982;42.848;25.468;2023-06-05T23:12:25;14.73;;;3.22;;
37067;SDS011;22982;42.848;25.468;2023-06-05T23:17:29;4.90;;;3.63;;
37067;SDS011;22982;42.848;25.468;2023-06-05T23:22:31;11.00;;;3.33;;
37067;SDS011;22982;42.848;25.468;2023-06-05T23:27:34;6.38;;;3.30;;
37067;SDS011;22982;42.848;25.468;2023-06-05T23:32:37;16.80;;;2.90;;
37067;SDS011;22982;42.848;25.468;2023-06-05T23:37:39;3.95;;;2.97;;
37067;SDS011;22982;42.848;25.468;2023-06-05T23:42:42;7.00;;;3.00;;
37067;SDS011;22982;42.848;25.468;2023-06-05T23:47:48;7.45;;;2.80;;
37067;SDS011;22982;42.848;25.468;2023-06-05T23:52:52;5.75;;;2.63;;
37067;SDS011;22982;42.848;25.468;2023-06-05T23:57:57;4.97;;;2.90;;
